logo
Rechercher aéroport 
image banner adimage banner adimage banner ad
image banner ad

CA457 - Lac Ste-Anne (Ctk3)

Situé à , Canada

ICAO - , IATA -

Données fournies par Airmate  

Information générale

Coordonnées: N50°4'7" W67°57'10"
Élévation : 877 feet MSL.
 
Voir autres Aéroports à Quebec

Données opérationnelles

Special qualification required
Heure actuelle UTC:
Heure actuelle locale:
Météo à : - ( 0 km )
METAR: PTTP 170652Z 18004KT 14SM SCT017TCU BKN110 OVC300 28/26 A2979 RMK SHRAB45 TCU ALQDS SLP088 T02800269
Voir NOTAMs / SUP AIP / TFR affectant cet aéroport [VIEW]
Fréquences de communication: [VIEW]

Pistes:

Coordonnées de l'aéroport

Adresse: Canada

Vue satellite de CA457